Capitol Reef, Utah
Current Conditions -  °F | °C
As of 6:53 AM on Friday 28 Nov 2014 (Local Time) from KBCE Reporting Station
Clear Clear  
Wind Chill:   Ceiling: Unl
Heat Index: 13°   Visibility: 10mi
Dew Point:   Wind: 6mph
Humidity: 81%   Direction: 250°WSW
Pressure: 30.27"   Gusts: NA
Location:  38.2517°N, 111.706°W
Report Text: KBCE 281353Z AUTO 25005KT 10SM CLR M11/M13 A3027 RMK AO2 SLP264 T11061133
Loading
Personal Weather Stations






























Interactive Weather Map New forecast layout! Learn more

10-Day Weather Forecast

Advertisements
Track Severe Weather on mobile